sensor_id;sensor_type;location;lat;lon;timestamp;P1;durP1;ratioP1;P2;durP2;ratioP2
8046;SDS011;67150;42.516;23.358;2023-05-24T00:00:25;4.17;;;3.80;;
8046;SDS011;67150;42.516;23.358;2023-05-24T00:02:53;4.17;;;3.77;;
8046;SDS011;67150;42.516;23.358;2023-05-24T00:05:21;4.30;;;3.90;;
8046;SDS011;67150;42.516;23.358;2023-05-24T00:07:49;4.03;;;3.73;;
8046;SDS011;67150;42.516;23.358;2023-05-24T00:10:16;4.30;;;3.90;;
8046;SDS011;67150;42.516;23.358;2023-05-24T00:12:45;3.87;;;3.57;;
8046;SDS011;67150;42.516;23.358;2023-05-24T00:15:12;4.23;;;3.93;;
8046;SDS011;67150;42.516;23.358;2023-05-24T00:17:40;4.13;;;3.73;;
8046;SDS011;67150;42.516;23.358;2023-05-24T00:20:08;4.00;;;3.70;;
8046;SDS011;67150;42.516;23.358;2023-05-24T00:22:37;3.93;;;3.63;;
8046;SDS011;67150;42.516;23.358;2023-05-24T00:25:06;4.67;;;3.77;;
8046;SDS011;67150;42.516;23.358;2023-05-24T00:27:33;3.63;;;3.33;;
8046;SDS011;67150;42.516;23.358;2023-05-24T00:30:03;4.10;;;3.70;;
8046;SDS011;67150;42.516;23.358;2023-05-24T00:32:31;4.00;;;3.70;;
8046;SDS011;67150;42.516;23.358;2023-05-24T00:34:59;4.10;;;3.70;;
8046;SDS011;67150;42.516;23.358;2023-05-24T00:37:26;6.77;;;3.60;;
8046;SDS011;67150;42.516;23.358;2023-05-24T00:39:54;4.13;;;3.80;;
8046;SDS011;67150;42.516;23.358;2023-05-24T00:42:21;3.80;;;3.50;;
8046;SDS011;67150;42.516;23.358;2023-05-24T00:44:48;3.80;;;3.50;;
8046;SDS011;67150;42.516;23.358;2023-05-24T00:47:17;4.73;;;3.60;;
8046;SDS011;67150;42.516;23.358;2023-05-24T00:49:44;4.10;;;3.70;;
8046;SDS011;67150;42.516;23.358;2023-05-24T00:52:12;4.30;;;3.90;;
8046;SDS011;67150;42.516;23.358;2023-05-24T00:54:40;3.83;;;3.53;;
8046;SDS011;67150;42.516;23.358;2023-05-24T00:57:07;4.53;;;3.60;;
8046;SDS011;67150;42.516;23.358;2023-05-24T00:59:34;4.10;;;3.80;;
8046;SDS011;67150;42.516;23.358;2023-05-24T01:02:02;6.60;;;3.53;;
8046;SDS011;67150;42.516;23.358;2023-05-24T01:04:31;3.70;;;3.40;;
8046;SDS011;67150;42.516;23.358;2023-05-24T01:07:02;3.60;;;3.30;;
8046;SDS011;67150;42.516;23.358;2023-05-24T01:09:50;4.80;;;3.37;;
8046;SDS011;67150;42.516;23.358;2023-05-24T01:12:25;4.50;;;3.67;;
8046;SDS011;67150;42.516;23.358;2023-05-24T01:14:58;4.17;;;3.77;;
8046;SDS011;67150;42.516;23.358;2023-05-24T01:17:32;3.93;;;3.57;;
8046;SDS011;67150;42.516;23.358;2023-05-24T01:20:08;3.87;;;3.57;;
8046;SDS011;67150;42.516;23.358;2023-05-24T01:25:53;4.07;;;3.77;;
8046;SDS011;67150;42.516;23.358;2023-05-24T01:28:34;3.90;;;3.60;;
8046;SDS011;67150;42.516;23.358;2023-05-24T01:31:02;4.23;;;3.60;;
8046;SDS011;67150;42.516;23.358;2023-05-24T01:33:31;3.90;;;3.60;;
8046;SDS011;67150;42.516;23.358;2023-05-24T01:35:58;3.90;;;3.60;;
8046;SDS011;67150;42.516;23.358;2023-05-24T01:38:25;4.10;;;3.80;;
8046;SDS011;67150;42.516;23.358;2023-05-24T01:40:54;4.90;;;3.90;;
8046;SDS011;67150;42.516;23.358;2023-05-24T01:43:29;3.77;;;3.47;;
8046;SDS011;67150;42.516;23.358;2023-05-24T01:46:04;4.73;;;3.60;;
8046;SDS011;67150;42.516;23.358;2023-05-24T01:48:39;3.57;;;3.27;;
8046;SDS011;67150;42.516;23.358;2023-05-24T01:51:14;4.87;;;3.43;;
8046;SDS011;67150;42.516;23.358;2023-05-24T01:53:44;3.70;;;3.40;;
8046;SDS011;67150;42.516;23.358;2023-05-24T01:56:14;3.57;;;3.30;;
8046;SDS011;67150;42.516;23.358;2023-05-24T01:58:44;3.83;;;3.53;;
8046;SDS011;67150;42.516;23.358;2023-05-24T02:01:14;6.27;;;3.73;;
8046;SDS011;67150;42.516;23.358;2023-05-24T02:03:42;3.93;;;3.63;;
8046;SDS011;67150;42.516;23.358;2023-05-24T02:06:10;3.73;;;3.43;;
8046;SDS011;67150;42.516;23.358;2023-05-24T02:08:37;3.90;;;3.60;;
8046;SDS011;67150;42.516;23.358;2023-05-24T02:11:04;4.90;;;3.50;;
8046;SDS011;67150;42.516;23.358;2023-05-24T02:13:32;4.30;;;3.90;;
8046;SDS011;67150;42.516;23.358;2023-05-24T02:15:59;4.37;;;4.00;;
8046;SDS011;67150;42.516;23.358;2023-05-24T02:18:28;4.30;;;3.90;;
8046;SDS011;67150;42.516;23.358;2023-05-24T02:20:59;3.70;;;3.40;;
8046;SDS011;67150;42.516;23.358;2023-05-24T02:23:27;3.80;;;3.50;;
8046;SDS011;67150;42.516;23.358;2023-05-24T02:25:54;4.30;;;3.80;;
8046;SDS011;67150;42.516;23.358;2023-05-24T02:28:21;4.07;;;3.70;;
8046;SDS011;67150;42.516;23.358;2023-05-24T02:30:49;3.90;;;3.60;;
8046;SDS011;67150;42.516;23.358;2023-05-24T02:33:16;4.60;;;3.40;;
8046;SDS011;67150;42.516;23.358;2023-05-24T02:35:44;4.10;;;3.70;;
8046;SDS011;67150;42.516;23.358;2023-05-24T02:38:12;3.70;;;3.40;;
8046;SDS011;67150;42.516;23.358;2023-05-24T02:40:39;3.77;;;3.47;;
8046;SDS011;67150;42.516;23.358;2023-05-24T02:43:06;3.73;;;3.43;;
8046;SDS011;67150;42.516;23.358;2023-05-24T02:45:34;3.70;;;3.40;;
8046;SDS011;67150;42.516;23.358;2023-05-24T02:48:02;3.53;;;3.27;;
8046;SDS011;67150;42.516;23.358;2023-05-24T02:50:29;3.60;;;3.30;;
8046;SDS011;67150;42.516;23.358;2023-05-24T02:52:58;3.87;;;3.40;;
8046;SDS011;67150;42.516;23.358;2023-05-24T02:55:25;3.80;;;3.40;;
8046;SDS011;67150;42.516;23.358;2023-05-24T02:57:53;3.97;;;3.50;;
8046;SDS011;67150;42.516;23.358;2023-05-24T03:00:20;3.70;;;3.33;;
8046;SDS011;67150;42.516;23.358;2023-05-24T03:02:48;4.20;;;3.47;;
8046;SDS011;67150;42.516;23.358;2023-05-24T03:05:17;3.50;;;3.20;;
8046;SDS011;67150;42.516;23.358;2023-05-24T03:07:44;3.57;;;3.27;;
8046;SDS011;67150;42.516;23.358;2023-05-24T03:10:13;3.53;;;3.23;;
8046;SDS011;67150;42.516;23.358;2023-05-24T03:12:40;3.90;;;3.47;;
8046;SDS011;67150;42.516;23.358;2023-05-24T03:15:08;3.47;;;3.20;;
8046;SDS011;67150;42.516;23.358;2023-05-24T03:17:36;3.83;;;3.53;;
8046;SDS011;67150;42.516;23.358;2023-05-24T03:20:03;3.70;;;3.40;;
8046;SDS011;67150;42.516;23.358;2023-05-24T03:22:32;3.60;;;3.30;;
8046;SDS011;67150;42.516;23.358;2023-05-24T03:24:59;3.63;;;3.33;;
8046;SDS011;67150;42.516;23.358;2023-05-24T03:27:28;3.90;;;3.50;;
8046;SDS011;67150;42.516;23.358;2023-05-24T03:29:55;4.40;;;3.50;;
8046;SDS011;67150;42.516;23.358;2023-05-24T03:32:23;3.67;;;3.20;;
8046;SDS011;67150;42.516;23.358;2023-05-24T03:34:50;3.70;;;3.40;;
8046;SDS011;67150;42.516;23.358;2023-05-24T03:37:17;3.60;;;3.30;;
8046;SDS011;67150;42.516;23.358;2023-05-24T03:39:44;3.60;;;3.30;;
8046;SDS011;67150;42.516;23.358;2023-05-24T03:42:12;3.60;;;3.30;;
8046;SDS011;67150;42.516;23.358;2023-05-24T03:44:40;3.53;;;3.23;;
8046;SDS011;67150;42.516;23.358;2023-05-24T03:47:08;4.00;;;3.23;;
8046;SDS011;67150;42.516;23.358;2023-05-24T03:49:35;3.77;;;3.40;;
8046;SDS011;67150;42.516;23.358;2023-05-24T03:52:02;3.70;;;3.40;;
8046;SDS011;67150;42.516;23.358;2023-05-24T03:54:30;3.73;;;3.53;;
8046;SDS011;67150;42.516;23.358;2023-05-24T03:56:57;4.20;;;3.60;;
8046;SDS011;67150;42.516;23.358;2023-05-24T03:59:25;3.40;;;3.20;;
8046;SDS011;67150;42.516;23.358;2023-05-24T04:01:53;3.97;;;3.60;;
8046;SDS011;67150;42.516;23.358;2023-05-24T04:04:21;4.33;;;3.43;;
8046;SDS011;67150;42.516;23.358;2023-05-24T04:06:48;4.10;;;3.80;;
8046;SDS011;67150;42.516;23.358;2023-05-24T04:09:15;4.00;;;3.67;;
8046;SDS011;67150;42.516;23.358;2023-05-24T04:11:42;4.83;;;3.63;;
8046;SDS011;67150;42.516;23.358;2023-05-24T04:14:10;3.43;;;3.23;;
8046;SDS011;67150;42.516;23.358;2023-05-24T04:16:37;3.60;;;3.30;;
8046;SDS011;67150;42.516;23.358;2023-05-24T04:19:07;3.80;;;3.50;;
8046;SDS011;67150;42.516;23.358;2023-05-24T04:21:34;3.77;;;3.47;;
8046;SDS011;67150;42.516;23.358;2023-05-24T04:24:02;4.07;;;3.63;;
8046;SDS011;67150;42.516;23.358;2023-05-24T04:26:31;3.50;;;3.20;;
8046;SDS011;67150;42.516;23.358;2023-05-24T04:28:58;3.30;;;3.10;;
8046;SDS011;67150;42.516;23.358;2023-05-24T04:31:26;3.60;;;3.30;;
8046;SDS011;67150;42.516;23.358;2023-05-24T04:33:54;3.77;;;3.47;;
8046;SDS011;67150;42.516;23.358;2023-05-24T04:36:24;3.63;;;3.10;;
8046;SDS011;67150;42.516;23.358;2023-05-24T04:38:53;3.40;;;3.20;;
8046;SDS011;67150;42.516;23.358;2023-05-24T04:41:20;3.80;;;3.50;;
8046;SDS011;67150;42.516;23.358;2023-05-24T04:43:48;3.90;;;3.57;;
8046;SDS011;67150;42.516;23.358;2023-05-24T04:46:16;3.40;;;3.13;;
8046;SDS011;67150;42.516;23.358;2023-05-24T04:48:43;3.67;;;3.37;;
8046;SDS011;67150;42.516;23.358;2023-05-24T04:51:10;5.30;;;3.23;;
8046;SDS011;67150;42.516;23.358;2023-05-24T04:53:39;4.23;;;3.30;;
8046;SDS011;67150;42.516;23.358;2023-05-24T04:56:07;3.77;;;3.47;;
8046;SDS011;67150;42.516;23.358;2023-05-24T04:58:34;3.93;;;3.63;;
8046;SDS011;67150;42.516;23.358;2023-05-24T05:01:01;3.73;;;3.40;;
8046;SDS011;67150;42.516;23.358;2023-05-24T05:03:29;3.93;;;3.63;;
8046;SDS011;67150;42.516;23.358;2023-05-24T05:05:56;3.67;;;3.43;;
8046;SDS011;67150;42.516;23.358;2023-05-24T05:08:24;4.00;;;3.70;;
8046;SDS011;67150;42.516;23.358;2023-05-24T05:10:52;3.90;;;3.60;;
8046;SDS011;67150;42.516;23.358;2023-05-24T05:13:20;3.80;;;3.50;;
8046;SDS011;67150;42.516;23.358;2023-05-24T05:15:48;3.77;;;3.47;;
8046;SDS011;67150;42.516;23.358;2023-05-24T05:18:15;4.00;;;3.70;;
8046;SDS011;67150;42.516;23.358;2023-05-24T05:20:43;3.90;;;3.50;;
8046;SDS011;67150;42.516;23.358;2023-05-24T05:23:10;4.30;;;4.00;;
8046;SDS011;67150;42.516;23.358;2023-05-24T05:25:37;4.03;;;3.63;;
8046;SDS011;67150;42.516;23.358;2023-05-24T05:28:09;4.23;;;3.83;;
8046;SDS011;67150;42.516;23.358;2023-05-24T05:30:36;3.50;;;3.30;;
8046;SDS011;67150;42.516;23.358;2023-05-24T05:33:03;4.37;;;3.90;;
8046;SDS011;67150;42.516;23.358;2023-05-24T05:35:31;3.93;;;3.63;;
8046;SDS011;67150;42.516;23.358;2023-05-24T05:37:58;3.90;;;3.57;;
8046;SDS011;67150;42.516;23.358;2023-05-24T05:40:25;3.90;;;3.60;;
8046;SDS011;67150;42.516;23.358;2023-05-24T05:42:53;4.00;;;3.70;;
8046;SDS011;67150;42.516;23.358;2023-05-24T05:45:21;4.33;;;3.57;;
8046;SDS011;67150;42.516;23.358;2023-05-24T05:47:49;3.90;;;3.60;;
8046;SDS011;67150;42.516;23.358;2023-05-24T05:50:16;4.40;;;4.00;;
8046;SDS011;67150;42.516;23.358;2023-05-24T05:52:44;4.33;;;3.93;;
8046;SDS011;67150;42.516;23.358;2023-05-24T05:55:11;3.80;;;3.50;;
8046;SDS011;67150;42.516;23.358;2023-05-24T05:57:38;4.20;;;3.80;;
8046;SDS011;67150;42.516;23.358;2023-05-24T06:00:06;3.90;;;3.60;;
8046;SDS011;67150;42.516;23.358;2023-05-24T06:02:36;4.03;;;3.73;;
8046;SDS011;67150;42.516;23.358;2023-05-24T06:05:04;3.90;;;3.50;;
8046;SDS011;67150;42.516;23.358;2023-05-24T06:07:31;4.43;;;3.63;;
8046;SDS011;67150;42.516;23.358;2023-05-24T06:10:00;3.80;;;3.50;;
8046;SDS011;67150;42.516;23.358;2023-05-24T06:12:27;4.07;;;3.77;;
8046;SDS011;67150;42.516;23.358;2023-05-24T06:14:54;5.47;;;4.17;;
8046;SDS011;67150;42.516;23.358;2023-05-24T06:17:23;4.30;;;3.90;;
8046;SDS011;67150;42.516;23.358;2023-05-24T06:19:53;4.70;;;4.30;;
8046;SDS011;67150;42.516;23.358;2023-05-24T06:22:20;4.10;;;3.80;;
8046;SDS011;67150;42.516;23.358;2023-05-24T06:24:48;4.43;;;3.90;;
8046;SDS011;67150;42.516;23.358;2023-05-24T06:27:16;4.30;;;3.90;;
8046;SDS011;67150;42.516;23.358;2023-05-24T06:29:44;4.30;;;3.90;;
8046;SDS011;67150;42.516;23.358;2023-05-24T06:32:11;4.73;;;3.70;;
8046;SDS011;67150;42.516;23.358;2023-05-24T06:34:38;4.07;;;3.77;;
8046;SDS011;67150;42.516;23.358;2023-05-24T06:37:07;4.97;;;3.90;;
8046;SDS011;67150;42.516;23.358;2023-05-24T06:39:39;4.53;;;4.10;;
8046;SDS011;67150;42.516;23.358;2023-05-24T06:42:06;4.23;;;3.80;;
8046;SDS011;67150;42.516;23.358;2023-05-24T06:44:34;5.00;;;4.10;;
8046;SDS011;67150;42.516;23.358;2023-05-24T06:47:02;6.83;;;3.80;;
8046;SDS011;67150;42.516;23.358;2023-05-24T06:49:30;4.27;;;3.90;;
8046;SDS011;67150;42.516;23.358;2023-05-24T06:51:57;4.80;;;4.13;;
8046;SDS011;67150;42.516;23.358;2023-05-24T06:54:26;4.57;;;4.17;;
8046;SDS011;67150;42.516;23.358;2023-05-24T06:56:53;4.13;;;3.83;;
8046;SDS011;67150;42.516;23.358;2023-05-24T06:59:21;4.53;;;4.13;;
8046;SDS011;67150;42.516;23.358;2023-05-24T07:01:48;4.27;;;3.93;;
8046;SDS011;67150;42.516;23.358;2023-05-24T07:04:21;4.40;;;4.00;;
8046;SDS011;67150;42.516;23.358;2023-05-24T07:06:49;4.20;;;3.90;;
8046;SDS011;67150;42.516;23.358;2023-05-24T07:09:17;4.37;;;3.70;;
8046;SDS011;67150;42.516;23.358;2023-05-24T07:11:46;3.93;;;3.63;;
8046;SDS011;67150;42.516;23.358;2023-05-24T07:14:13;5.00;;;3.80;;
8046;SDS011;67150;42.516;23.358;2023-05-24T07:16:43;4.57;;;4.00;;
8046;SDS011;67150;42.516;23.358;2023-05-24T07:19:10;4.43;;;4.03;;
8046;SDS011;67150;42.516;23.358;2023-05-24T07:21:38;4.60;;;4.17;;
8046;SDS011;67150;42.516;23.358;2023-05-24T07:24:06;4.63;;;4.23;;
8046;SDS011;67150;42.516;23.358;2023-05-24T07:26:34;5.90;;;3.87;;
8046;SDS011;67150;42.516;23.358;2023-05-24T07:29:03;4.73;;;4.00;;
8046;SDS011;67150;42.516;23.358;2023-05-24T07:31:30;4.37;;;3.97;;
8046;SDS011;67150;42.516;23.358;2023-05-24T07:33:59;4.43;;;4.03;;
8046;SDS011;67150;42.516;23.358;2023-05-24T07:36:26;4.27;;;3.97;;
8046;SDS011;67150;42.516;23.358;2023-05-24T07:38:56;4.63;;;3.80;;
8046;SDS011;67150;42.516;23.358;2023-05-24T07:41:25;4.73;;;4.33;;
8046;SDS011;67150;42.516;23.358;2023-05-24T07:43:53;5.87;;;3.70;;
8046;SDS011;67150;42.516;23.358;2023-05-24T07:46:22;4.33;;;3.93;;
8046;SDS011;67150;42.516;23.358;2023-05-24T07:48:49;4.13;;;3.73;;
8046;SDS011;67150;42.516;23.358;2023-05-24T07:51:16;4.23;;;3.93;;
8046;SDS011;67150;42.516;23.358;2023-05-24T07:53:44;5.07;;;3.83;;
8046;SDS011;67150;42.516;23.358;2023-05-24T07:56:12;4.37;;;4.07;;
8046;SDS011;67150;42.516;23.358;2023-05-24T07:58:39;4.40;;;3.90;;
8046;SDS011;67150;42.516;23.358;2023-05-24T08:01:08;4.50;;;4.10;;
8046;SDS011;67150;42.516;23.358;2023-05-24T08:03:37;4.03;;;3.73;;
8046;SDS011;67150;42.516;23.358;2023-05-24T08:06:04;4.13;;;3.80;;
8046;SDS011;67150;42.516;23.358;2023-05-24T08:08:32;3.93;;;3.63;;
8046;SDS011;67150;42.516;23.358;2023-05-24T08:10:59;4.43;;;3.90;;
8046;SDS011;67150;42.516;23.358;2023-05-24T08:13:27;6.60;;;4.40;;
8046;SDS011;67150;42.516;23.358;2023-05-24T08:15:54;4.70;;;4.30;;
8046;SDS011;67150;42.516;23.358;2023-05-24T08:18:22;5.20;;;4.30;;
8046;SDS011;67150;42.516;23.358;2023-05-24T08:20:51;5.00;;;4.50;;
8046;SDS011;67150;42.516;23.358;2023-05-24T08:23:18;4.87;;;4.27;;
8046;SDS011;67150;42.516;23.358;2023-05-24T08:25:46;5.50;;;4.13;;
8046;SDS011;67150;42.516;23.358;2023-05-24T08:28:13;4.47;;;4.07;;
8046;SDS011;67150;42.516;23.358;2023-05-24T08:30:41;4.83;;;4.10;;
8046;SDS011;67150;42.516;23.358;2023-05-24T08:33:08;4.37;;;4.07;;
8046;SDS011;67150;42.516;23.358;2023-05-24T08:35:36;4.63;;;4.27;;
8046;SDS011;67150;42.516;23.358;2023-05-24T08:38:05;4.67;;;4.27;;
8046;SDS011;67150;42.516;23.358;2023-05-24T08:40:32;4.40;;;4.00;;
8046;SDS011;67150;42.516;23.358;2023-05-24T08:43:00;4.77;;;4.37;;
8046;SDS011;67150;42.516;23.358;2023-05-24T08:45:28;4.53;;;4.10;;
8046;SDS011;67150;42.516;23.358;2023-05-24T08:47:57;4.97;;;3.97;;
8046;SDS011;67150;42.516;23.358;2023-05-24T08:50:25;4.60;;;4.20;;
8046;SDS011;67150;42.516;23.358;2023-05-24T08:52:53;4.40;;;4.10;;
8046;SDS011;67150;42.516;23.358;2023-05-24T08:55:25;4.47;;;4.07;;
8046;SDS011;67150;42.516;23.358;2023-05-24T08:57:53;5.67;;;4.10;;
8046;SDS011;67150;42.516;23.358;2023-05-24T09:00:21;4.30;;;3.90;;
8046;SDS011;67150;42.516;23.358;2023-05-24T09:02:48;6.30;;;4.07;;
8046;SDS011;67150;42.516;23.358;2023-05-24T09:05:16;4.53;;;4.00;;
8046;SDS011;67150;42.516;23.358;2023-05-24T09:07:46;5.13;;;4.10;;
8046;SDS011;67150;42.516;23.358;2023-05-24T09:10:15;4.53;;;4.20;;
8046;SDS011;67150;42.516;23.358;2023-05-24T09:12:49;4.30;;;3.90;;
8046;SDS011;67150;42.516;23.358;2023-05-24T09:15:19;4.60;;;4.20;;
8046;SDS011;67150;42.516;23.358;2023-05-24T09:17:47;5.30;;;4.17;;
8046;SDS011;67150;42.516;23.358;2023-05-24T09:20:14;4.27;;;3.87;;
8046;SDS011;67150;42.516;23.358;2023-05-24T09:22:42;4.87;;;4.47;;
8046;SDS011;67150;42.516;23.358;2023-05-24T09:25:12;4.97;;;4.23;;
8046;SDS011;67150;42.516;23.358;2023-05-24T09:27:40;4.40;;;4.10;;
8046;SDS011;67150;42.516;23.358;2023-05-24T09:30:17;4.80;;;4.40;;
8046;SDS011;67150;42.516;23.358;2023-05-24T09:32:53;4.90;;;4.00;;
8046;SDS011;67150;42.516;23.358;2023-05-24T09:35:22;4.27;;;3.83;;
8046;SDS011;67150;42.516;23.358;2023-05-24T09:37:52;4.67;;;4.27;;
8046;SDS011;67150;42.516;23.358;2023-05-24T09:40:22;5.37;;;3.90;;
8046;SDS011;67150;42.516;23.358;2023-05-24T09:43:01;4.43;;;4.03;;
8046;SDS011;67150;42.516;23.358;2023-05-24T09:45:31;5.17;;;4.33;;
8046;SDS011;67150;42.516;23.358;2023-05-24T09:47:59;5.10;;;4.53;;
8046;SDS011;67150;42.516;23.358;2023-05-24T09:50:29;5.50;;;4.60;;
8046;SDS011;67150;42.516;23.358;2023-05-24T09:52:56;5.50;;;4.43;;
8046;SDS011;67150;42.516;23.358;2023-05-24T09:55:24;4.57;;;4.17;;
8046;SDS011;67150;42.516;23.358;2023-05-24T09:58:01;5.40;;;3.83;;
8046;SDS011;67150;42.516;23.358;2023-05-24T10:00:33;4.60;;;4.20;;
8046;SDS011;67150;42.516;23.358;2023-05-24T10:03:04;5.53;;;4.33;;
8046;SDS011;67150;42.516;23.358;2023-05-24T10:05:32;7.57;;;4.90;;
8046;SDS011;67150;42.516;23.358;2023-05-24T10:08:00;5.57;;;4.40;;
8046;SDS011;67150;42.516;23.358;2023-05-24T10:10:30;5.10;;;4.17;;
8046;SDS011;67150;42.516;23.358;2023-05-24T10:12:59;5.87;;;4.67;;
8046;SDS011;67150;42.516;23.358;2023-05-24T10:15:27;5.73;;;4.30;;
8046;SDS011;67150;42.516;23.358;2023-05-24T10:17:56;4.60;;;4.20;;
8046;SDS011;67150;42.516;23.358;2023-05-24T10:20:24;5.13;;;4.20;;
8046;SDS011;67150;42.516;23.358;2023-05-24T10:22:53;4.50;;;4.10;;
8046;SDS011;67150;42.516;23.358;2023-05-24T10:25:25;4.50;;;4.10;;
8046;SDS011;67150;42.516;23.358;2023-05-24T10:27:54;5.17;;;3.90;;
8046;SDS011;67150;42.516;23.358;2023-05-24T10:30:25;5.47;;;4.27;;
8046;SDS011;67150;42.516;23.358;2023-05-24T10:32:58;4.20;;;3.80;;
8046;SDS011;67150;42.516;23.358;2023-05-24T10:35:29;5.93;;;4.10;;
8046;SDS011;67150;42.516;23.358;2023-05-24T10:37:58;4.80;;;4.30;;
8046;SDS011;67150;42.516;23.358;2023-05-24T10:40:31;5.50;;;4.30;;
8046;SDS011;67150;42.516;23.358;2023-05-24T10:43:00;4.90;;;4.43;;
8046;SDS011;67150;42.516;23.358;2023-05-24T10:45:31;4.87;;;4.47;;
8046;SDS011;67150;42.516;23.358;2023-05-24T10:48:02;5.27;;;4.23;;
8046;SDS011;67150;42.516;23.358;2023-05-24T10:50:35;5.03;;;4.00;;
8046;SDS011;67150;42.516;23.358;2023-05-24T10:53:12;4.53;;;3.80;;
8046;SDS011;67150;42.516;23.358;2023-05-24T10:55:50;4.07;;;3.67;;
8046;SDS011;67150;42.516;23.358;2023-05-24T10:58:18;4.83;;;3.90;;
8046;SDS011;67150;42.516;23.358;2023-05-24T11:00:46;4.00;;;3.60;;
8046;SDS011;67150;42.516;23.358;2023-05-24T11:03:19;4.50;;;4.10;;
8046;SDS011;67150;42.516;23.358;2023-05-24T11:05:50;4.73;;;4.10;;
8046;SDS011;67150;42.516;23.358;2023-05-24T11:08:22;4.83;;;3.90;;
8046;SDS011;67150;42.516;23.358;2023-05-24T11:11:01;4.10;;;3.80;;
8046;SDS011;67150;42.516;23.358;2023-05-24T11:13:29;4.43;;;4.00;;
8046;SDS011;67150;42.516;23.358;2023-05-24T11:15:58;5.07;;;3.93;;
8046;SDS011;67150;42.516;23.358;2023-05-24T11:18:27;5.30;;;3.83;;
8046;SDS011;67150;42.516;23.358;2023-05-24T11:20:54;4.00;;;3.70;;
8046;SDS011;67150;42.516;23.358;2023-05-24T11:23:24;5.93;;;3.87;;
8046;SDS011;67150;42.516;23.358;2023-05-24T11:25:52;4.93;;;3.90;;
8046;SDS011;67150;42.516;23.358;2023-05-24T11:28:19;5.27;;;4.37;;
8046;SDS011;67150;42.516;23.358;2023-05-24T11:30:47;3.67;;;3.37;;
8046;SDS011;67150;42.516;23.358;2023-05-24T11:33:15;5.20;;;3.87;;
8046;SDS011;67150;42.516;23.358;2023-05-24T11:35:44;4.37;;;3.97;;
8046;SDS011;67150;42.516;23.358;2023-05-24T11:38:12;4.27;;;3.80;;
8046;SDS011;67150;42.516;23.358;2023-05-24T11:40:41;4.40;;;4.00;;
8046;SDS011;67150;42.516;23.358;2023-05-24T11:43:12;4.30;;;3.90;;
8046;SDS011;67150;42.516;23.358;2023-05-24T11:45:41;3.80;;;3.50;;
8046;SDS011;67150;42.516;23.358;2023-05-24T11:48:09;3.90;;;3.60;;
8046;SDS011;67150;42.516;23.358;2023-05-24T11:50:37;4.10;;;3.33;;
8046;SDS011;67150;42.516;23.358;2023-05-24T11:53:08;3.90;;;3.50;;
8046;SDS011;67150;42.516;23.358;2023-05-24T11:55:35;4.13;;;3.73;;
8046;SDS011;67150;42.516;23.358;2023-05-24T11:58:05;3.93;;;3.63;;
8046;SDS011;67150;42.516;23.358;2023-05-24T12:00:37;3.70;;;3.40;;
8046;SDS011;67150;42.516;23.358;2023-05-24T12:03:04;4.17;;;3.50;;
8046;SDS011;67150;42.516;23.358;2023-05-24T12:05:35;3.77;;;3.30;;
8046;SDS011;67150;42.516;23.358;2023-05-24T12:08:04;4.10;;;3.70;;
8046;SDS011;67150;42.516;23.358;2023-05-24T12:10:34;5.33;;;4.17;;
8046;SDS011;67150;42.516;23.358;2023-05-24T12:13:02;3.77;;;3.47;;
8046;SDS011;67150;42.516;23.358;2023-05-24T12:15:30;3.53;;;3.33;;
8046;SDS011;67150;42.516;23.358;2023-05-24T12:17:58;4.20;;;3.90;;
8046;SDS011;67150;42.516;23.358;2023-05-24T12:20:27;3.80;;;3.50;;
8046;SDS011;67150;42.516;23.358;2023-05-24T12:22:55;4.63;;;4.13;;
8046;SDS011;67150;42.516;23.358;2023-05-24T12:25:22;4.07;;;3.77;;
8046;SDS011;67150;42.516;23.358;2023-05-24T12:27:53;4.10;;;3.80;;
8046;SDS011;67150;42.516;23.358;2023-05-24T12:30:21;4.43;;;4.00;;
8046;SDS011;67150;42.516;23.358;2023-05-24T12:32:49;3.83;;;3.43;;
8046;SDS011;67150;42.516;23.358;2023-05-24T12:35:19;4.03;;;3.50;;
8046;SDS011;67150;42.516;23.358;2023-05-24T12:37:47;4.50;;;4.10;;
8046;SDS011;67150;42.516;23.358;2023-05-24T12:40:15;5.30;;;4.10;;
8046;SDS011;67150;42.516;23.358;2023-05-24T12:42:45;4.33;;;3.93;;
8046;SDS011;67150;42.516;23.358;2023-05-24T12:45:17;6.50;;;4.07;;
8046;SDS011;67150;42.516;23.358;2023-05-24T12:47:48;4.20;;;3.90;;
8046;SDS011;67150;42.516;23.358;2023-05-24T12:50:16;4.47;;;4.07;;
8046;SDS011;67150;42.516;23.358;2023-05-24T12:52:44;4.33;;;3.93;;
8046;SDS011;67150;42.516;23.358;2023-05-24T12:55:12;4.30;;;3.90;;
8046;SDS011;67150;42.516;23.358;2023-05-24T12:57:40;4.23;;;3.80;;
8046;SDS011;67150;42.516;23.358;2023-05-24T13:00:09;4.30;;;3.90;;
8046;SDS011;67150;42.516;23.358;2023-05-24T13:02:39;4.23;;;3.57;;
8046;SDS011;67150;42.516;23.358;2023-05-24T13:05:06;3.87;;;3.57;;
8046;SDS011;67150;42.516;23.358;2023-05-24T13:07:34;4.20;;;3.87;;
8046;SDS011;67150;42.516;23.358;2023-05-24T13:10:02;4.10;;;3.77;;
8046;SDS011;67150;42.516;23.358;2023-05-24T13:12:30;4.00;;;3.70;;
8046;SDS011;67150;42.516;23.358;2023-05-24T13:14:57;3.83;;;3.53;;
8046;SDS011;67150;42.516;23.358;2023-05-24T13:17:25;3.80;;;3.50;;
8046;SDS011;67150;42.516;23.358;2023-05-24T13:19:53;3.90;;;3.60;;
8046;SDS011;67150;42.516;23.358;2023-05-24T13:22:21;3.90;;;3.50;;
8046;SDS011;67150;42.516;23.358;2023-05-24T13:24:50;4.00;;;3.70;;
8046;SDS011;67150;42.516;23.358;2023-05-24T13:27:17;4.07;;;3.70;;
8046;SDS011;67150;42.516;23.358;2023-05-24T13:29:44;4.07;;;3.77;;
8046;SDS011;67150;42.516;23.358;2023-05-24T13:32:12;4.53;;;4.13;;
8046;SDS011;67150;42.516;23.358;2023-05-24T13:34:39;5.07;;;4.07;;
8046;SDS011;67150;42.516;23.358;2023-05-24T13:37:09;4.30;;;3.90;;
8046;SDS011;67150;42.516;23.358;2023-05-24T13:39:36;4.00;;;3.67;;
8046;SDS011;67150;42.516;23.358;2023-05-24T13:42:04;4.13;;;3.73;;
8046;SDS011;67150;42.516;23.358;2023-05-24T13:44:31;4.23;;;3.93;;
8046;SDS011;67150;42.516;23.358;2023-05-24T13:46:59;4.30;;;3.90;;
8046;SDS011;67150;42.516;23.358;2023-05-24T13:49:26;3.90;;;3.60;;
8046;SDS011;67150;42.516;23.358;2023-05-24T13:51:54;4.03;;;3.67;;
8046;SDS011;67150;42.516;23.358;2023-05-24T13:54:23;4.00;;;3.70;;
8046;SDS011;67150;42.516;23.358;2023-05-24T13:56:50;3.90;;;3.60;;
8046;SDS011;67150;42.516;23.358;2023-05-24T13:59:21;4.67;;;3.70;;
8046;SDS011;67150;42.516;23.358;2023-05-24T14:01:48;4.23;;;3.60;;
8046;SDS011;67150;42.516;23.358;2023-05-24T14:04:16;3.93;;;3.63;;
8046;SDS011;67150;42.516;23.358;2023-05-24T14:06:44;3.87;;;3.57;;
8046;SDS011;67150;42.516;23.358;2023-05-24T14:09:11;3.70;;;3.40;;
8046;SDS011;67150;42.516;23.358;2023-05-24T14:11:40;3.70;;;3.40;;
8046;SDS011;67150;42.516;23.358;2023-05-24T14:14:09;4.43;;;4.03;;
8046;SDS011;67150;42.516;23.358;2023-05-24T14:16:37;3.83;;;3.53;;
8046;SDS011;67150;42.516;23.358;2023-05-24T14:19:04;4.23;;;3.70;;
8046;SDS011;67150;42.516;23.358;2023-05-24T14:21:31;4.07;;;3.77;;
8046;SDS011;67150;42.516;23.358;2023-05-24T14:23:59;4.23;;;3.83;;
8046;SDS011;67150;42.516;23.358;2023-05-24T14:26:26;4.10;;;3.70;;
8046;SDS011;67150;42.516;23.358;2023-05-24T14:28:55;4.00;;;3.70;;
8046;SDS011;67150;42.516;23.358;2023-05-24T14:31:22;4.00;;;3.70;;
8046;SDS011;67150;42.516;23.358;2023-05-24T14:33:50;3.97;;;3.57;;
8046;SDS011;67150;42.516;23.358;2023-05-24T14:36:17;4.23;;;3.83;;
8046;SDS011;67150;42.516;23.358;2023-05-24T14:38:45;4.17;;;3.87;;
8046;SDS011;67150;42.516;23.358;2023-05-24T14:41:12;3.97;;;3.67;;
8046;SDS011;67150;42.516;23.358;2023-05-24T14:43:40;4.27;;;3.97;;
8046;SDS011;67150;42.516;23.358;2023-05-24T14:46:09;4.17;;;3.83;;
8046;SDS011;67150;42.516;23.358;2023-05-24T14:48:36;4.33;;;4.00;;
8046;SDS011;67150;42.516;23.358;2023-05-24T14:51:06;4.83;;;4.33;;
8046;SDS011;67150;42.516;23.358;2023-05-24T14:53:33;4.47;;;4.07;;
8046;SDS011;67150;42.516;23.358;2023-05-24T14:56:00;4.50;;;4.10;;
8046;SDS011;67150;42.516;23.358;2023-05-24T14:58:29;4.53;;;4.13;;